sensor_id;sensor_type;location;lat;lon;timestamp;pressure;altitude;pressure_sealevel;temperature;humidity
39789;BME280;25478;42.626;23.320;2022-08-14T00:00:21;92636.69;;;16.08;100.00
39789;BME280;25478;42.626;23.320;2022-08-14T00:02:53;92633.59;;;16.10;100.00
39789;BME280;25478;42.626;23.320;2022-08-14T00:05:25;92619.66;;;16.05;100.00
39789;BME280;25478;42.626;23.320;2022-08-14T00:07:57;92625.31;;;16.08;100.00
39789;BME280;25478;42.626;23.320;2022-08-14T00:10:29;92626.56;;;16.03;100.00
39789;BME280;25478;42.626;23.320;2022-08-14T00:13:01;92625.50;;;16.00;100.00
39789;BME280;25478;42.626;23.320;2022-08-14T00:15:37;92614.22;;;15.96;100.00
39789;BME280;25478;42.626;23.320;2022-08-14T00:18:12;92618.69;;;15.99;100.00
39789;BME280;25478;42.626;23.320;2022-08-14T00:20:51;92617.53;;;16.00;100.00
39789;BME280;25478;42.626;23.320;2022-08-14T00:23:24;92593.00;;;15.80;100.00
39789;BME280;25478;42.626;23.320;2022-08-14T00:25:56;92616.78;;;16.00;100.00
39789;BME280;25478;42.626;23.320;2022-08-14T00:28:28;92610.75;;;15.99;100.00
39789;BME280;25478;42.626;23.320;2022-08-14T00:31:00;92613.81;;;15.98;100.00
39789;BME280;25478;42.626;23.320;2022-08-14T00:33:32;92611.91;;;15.98;100.00
39789;BME280;25478;42.626;23.320;2022-08-14T00:36:05;92609.25;;;15.98;100.00
39789;BME280;25478;42.626;23.320;2022-08-14T00:38:31;92606.59;;;15.98;100.00
39789;BME280;25478;42.626;23.320;2022-08-14T00:41:06;92607.34;;;15.99;100.00
39789;BME280;25478;42.626;23.320;2022-08-14T00:43:39;92613.81;;;15.98;100.00
39789;BME280;25478;42.626;23.320;2022-08-14T00:46:12;92608.50;;;15.98;100.00
39789;BME280;25478;42.626;23.320;2022-08-14T00:48:45;92610.38;;;15.97;100.00
39789;BME280;25478;42.626;23.320;2022-08-14T00:51:17;92610.06;;;15.95;100.00
39789;BME280;25478;42.626;23.320;2022-08-14T00:53:49;92611.97;;;15.95;100.00
39789;BME280;25478;42.626;23.320;2022-08-14T00:56:23;92602.53;;;15.94;100.00
39789;BME280;25478;42.626;23.320;2022-08-14T00:58:55;92606.22;;;15.84;100.00
39789;BME280;25478;42.626;23.320;2022-08-14T01:01:30;92598.56;;;15.86;100.00
39789;BME280;25478;42.626;23.320;2022-08-14T01:04:03;92594.19;;;15.79;100.00
39789;BME280;25478;42.626;23.320;2022-08-14T01:06:36;92590.72;;;15.82;100.00
39789;BME280;25478;42.626;23.320;2022-08-14T01:09:09;92587.69;;;15.80;100.00
39789;BME280;25478;42.626;23.320;2022-08-14T01:11:41;92583.56;;;15.79;100.00
39789;BME280;25478;42.626;23.320;2022-08-14T01:14:13;92580.16;;;15.79;100.00
39789;BME280;25478;42.626;23.320;2022-08-14T01:16:52;92563.66;;;15.71;100.00
39789;BME280;25478;42.626;23.320;2022-08-14T01:19:24;92579.09;;;15.76;100.00
39789;BME280;25478;42.626;23.320;2022-08-14T01:22:15;92580.25;;;15.75;100.00
39789;BME280;25478;42.626;23.320;2022-08-14T01:24:48;92572.47;;;15.68;100.00
39789;BME280;25478;42.626;23.320;2022-08-14T01:27:22;92568.59;;;15.72;100.00
39789;BME280;25478;42.626;23.320;2022-08-14T01:29:56;92565.50;;;15.74;100.00
39789;BME280;25478;42.626;23.320;2022-08-14T01:32:28;92573.47;;;15.74;100.00
39789;BME280;25478;42.626;23.320;2022-08-14T01:35:00;92571.56;;;15.74;100.00
39789;BME280;25478;42.626;23.320;2022-08-14T01:37:32;92575.69;;;15.75;100.00
39789;BME280;25478;42.626;23.320;2022-08-14T01:40:05;92572.81;;;15.70;100.00
39789;BME280;25478;42.626;23.320;2022-08-14T01:42:37;92582.41;;;15.80;100.00
39789;BME280;25478;42.626;23.320;2022-08-14T01:45:09;92580.84;;;15.83;100.00
39789;BME280;25478;42.626;23.320;2022-08-14T01:47:45;92580.84;;;15.83;100.00
39789;BME280;25478;42.626;23.320;2022-08-14T01:50:17;92575.53;;;15.83;100.00
39789;BME280;25478;42.626;23.320;2022-08-14T01:52:50;92567.22;;;15.81;100.00
39789;BME280;25478;42.626;23.320;2022-08-14T01:55:24;92557.19;;;15.72;100.00
39789;BME280;25478;42.626;23.320;2022-08-14T01:58:01;92557.81;;;15.63;100.00
39789;BME280;25478;42.626;23.320;2022-08-14T02:00:33;92557.88;;;15.60;100.00
39789;BME280;25478;42.626;23.320;2022-08-14T02:03:09;92563.34;;;15.53;100.00
39789;BME280;25478;42.626;23.320;2022-08-14T02:05:35;92551.09;;;15.42;100.00
39789;BME280;25478;42.626;23.320;2022-08-14T02:08:07;92568.91;;;15.42;100.00
39789;BME280;25478;42.626;23.320;2022-08-14T02:10:40;92569.34;;;15.40;100.00
39789;BME280;25478;42.626;23.320;2022-08-14T02:13:14;92566.34;;;15.38;100.00
39789;BME280;25478;42.626;23.320;2022-08-14T02:15:47;92573.16;;;15.39;100.00
39789;BME280;25478;42.626;23.320;2022-08-14T02:18:19;92573.47;;;15.41;100.00
39789;BME280;25478;42.626;23.320;2022-08-14T02:20:59;92566.28;;;15.42;100.00
39789;BME280;25478;42.626;23.320;2022-08-14T02:23:31;92558.63;;;15.44;100.00
39789;BME280;25478;42.626;23.320;2022-08-14T02:26:14;92552.91;;;15.45;100.00
39789;BME280;25478;42.626;23.320;2022-08-14T02:28:47;92555.50;;;15.49;100.00
39789;BME280;25478;42.626;23.320;2022-08-14T02:31:21;92548.59;;;15.52;100.00
39789;BME280;25478;42.626;23.320;2022-08-14T02:33:53;92545.53;;;15.53;100.00
39789;BME280;25478;42.626;23.320;2022-08-14T02:36:26;92542.78;;;15.57;100.00
39789;BME280;25478;42.626;23.320;2022-08-14T02:38:58;92544.28;;;15.58;100.00
39789;BME280;25478;42.626;23.320;2022-08-14T02:41:30;92554.09;;;15.61;100.00
39789;BME280;25478;42.626;23.320;2022-08-14T02:44:05;92559.31;;;15.64;100.00
39789;BME280;25478;42.626;23.320;2022-08-14T02:46:38;92543.19;;;15.55;100.00
39789;BME280;25478;42.626;23.320;2022-08-14T02:49:12;92555.38;;;15.69;100.00
39789;BME280;25478;42.626;23.320;2022-08-14T02:51:48;92546.38;;;15.66;100.00
39789;BME280;25478;42.626;23.320;2022-08-14T02:54:20;92541.06;;;15.66;100.00
39789;BME280;25478;42.626;23.320;2022-08-14T02:56:48;92553.72;;;15.75;100.00
39789;BME280;25478;42.626;23.320;2022-08-14T02:59:22;92556.06;;;15.73;100.00
39789;BME280;25478;42.626;23.320;2022-08-14T03:01:55;92554.22;;;15.70;100.00
39789;BME280;25478;42.626;23.320;2022-08-14T03:04:28;92545.63;;;15.66;100.00
39789;BME280;25478;42.626;23.320;2022-08-14T03:07:01;92552.84;;;15.65;100.00
39789;BME280;25478;42.626;23.320;2022-08-14T03:09:33;92558.88;;;15.66;100.00
39789;BME280;25478;42.626;23.320;2022-08-14T03:12:05;92554.31;;;15.66;100.00
39789;BME280;25478;42.626;23.320;2022-08-14T03:14:31;92554.66;;;15.68;100.00
39789;BME280;25478;42.626;23.320;2022-08-14T03:17:14;92547.34;;;15.72;100.00
39789;BME280;25478;42.626;23.320;2022-08-14T03:19:47;92540.13;;;15.73;100.00
39789;BME280;25478;42.626;23.320;2022-08-14T03:22:26;92554.06;;;15.77;100.00
39789;BME280;25478;42.626;23.320;2022-08-14T03:24:52;92552.47;;;15.80;100.00
39789;BME280;25478;42.626;23.320;2022-08-14T03:27:24;92559.25;;;15.81;100.00
39789;BME280;25478;42.626;23.320;2022-08-14T03:30:02;92557.38;;;15.81;100.00
39789;BME280;25478;42.626;23.320;2022-08-14T03:32:34;92556.94;;;15.83;100.00
39789;BME280;25478;42.626;23.320;2022-08-14T03:35:07;92567.13;;;15.84;100.00
39789;BME280;25478;42.626;23.320;2022-08-14T03:37:40;92566.81;;;15.82;100.00
39789;BME280;25478;42.626;23.320;2022-08-14T03:40:13;92552.00;;;15.68;100.00
39789;BME280;25478;42.626;23.320;2022-08-14T03:42:45;92563.81;;;15.80;100.00
39789;BME280;25478;42.626;23.320;2022-08-14T03:45:18;92575.94;;;15.81;100.00
39789;BME280;25478;42.626;23.320;2022-08-14T03:47:43;92572.88;;;15.83;100.00
39789;BME280;25478;42.626;23.320;2022-08-14T03:50:16;92575.84;;;15.85;100.00
39789;BME280;25478;42.626;23.320;2022-08-14T03:52:48;92581.91;;;15.85;100.00
39789;BME280;25478;42.626;23.320;2022-08-14T03:55:20;92584.22;;;15.83;100.00
39789;BME280;25478;42.626;23.320;2022-08-14T03:57:51;92565.84;;;15.76;100.00
39789;BME280;25478;42.626;23.320;2022-08-14T04:00:24;92559.03;;;15.75;100.00
39789;BME280;25478;42.626;23.320;2022-08-14T04:02:56;92573.94;;;15.85;100.00
39789;BME280;25478;42.626;23.320;2022-08-14T04:05:28;92576.16;;;15.87;100.00
39789;BME280;25478;42.626;23.320;2022-08-14T04:08:00;92585.22;;;15.89;100.00
39789;BME280;25478;42.626;23.320;2022-08-14T04:10:32;92576.84;;;15.91;100.00
39789;BME280;25478;42.626;23.320;2022-08-14T04:13:04;92570.84;;;15.87;100.00
39789;BME280;25478;42.626;23.320;2022-08-14T04:15:37;92577.56;;;15.91;100.00
39789;BME280;25478;42.626;23.320;2022-08-14T04:18:15;92583.53;;;15.95;100.00
39789;BME280;25478;42.626;23.320;2022-08-14T04:20:48;92581.97;;;15.98;100.00
39789;BME280;25478;42.626;23.320;2022-08-14T04:23:13;92578.03;;;16.02;100.00
39789;BME280;25478;42.626;23.320;2022-08-14T04:25:47;92586.19;;;15.95;100.00
39789;BME280;25478;42.626;23.320;2022-08-14T04:28:20;92582.72;;;15.98;100.00
39789;BME280;25478;42.626;23.320;2022-08-14T04:30:53;92585.69;;;16.00;100.00
39789;BME280;25478;42.626;23.320;2022-08-14T04:33:26;92586.44;;;16.01;100.00
39789;BME280;25478;42.626;23.320;2022-08-14T04:35:59;92578.78;;;16.03;100.00
39789;BME280;25478;42.626;23.320;2022-08-14T04:38:32;92576.88;;;16.03;100.00
39789;BME280;25478;42.626;23.320;2022-08-14T04:41:23;92583.16;;;16.10;100.00
39789;BME280;25478;42.626;23.320;2022-08-14T04:44:13;92577.75;;;16.13;100.00
39789;BME280;25478;42.626;23.320;2022-08-14T04:46:46;92575.09;;;16.13;100.00
39789;BME280;25478;42.626;23.320;2022-08-14T04:49:37;92578.84;;;16.16;100.00
39789;BME280;25478;42.626;23.320;2022-08-14T04:52:09;92577.25;;;16.18;100.00
39789;BME280;25478;42.626;23.320;2022-08-14T04:54:40;92565.75;;;16.21;100.00
39789;BME280;25478;42.626;23.320;2022-08-14T04:57:13;92564.50;;;16.26;100.00
39789;BME280;25478;42.626;23.320;2022-08-14T04:59:46;92567.81;;;16.30;100.00
39789;BME280;25478;42.626;23.320;2022-08-14T05:02:18;92563.47;;;16.36;100.00
39789;BME280;25478;42.626;23.320;2022-08-14T05:04:56;92572.00;;;16.44;100.00
39789;BME280;25478;42.626;23.320;2022-08-14T05:07:28;92566.47;;;16.51;100.00
39789;BME280;25478;42.626;23.320;2022-08-14T05:09:59;92567.44;;;16.57;100.00
39789;BME280;25478;42.626;23.320;2022-08-14T05:12:33;92553.09;;;16.54;100.00
39789;BME280;25478;42.626;23.320;2022-08-14T05:14:58;92564.91;;;16.66;100.00
39789;BME280;25478;42.626;23.320;2022-08-14T05:17:30;92567.47;;;16.70;100.00
39789;BME280;25478;42.626;23.320;2022-08-14T05:20:03;92575.78;;;16.72;100.00
39789;BME280;25478;42.626;23.320;2022-08-14T05:22:42;92552.66;;;16.56;100.00
39789;BME280;25478;42.626;23.320;2022-08-14T05:25:14;92571.78;;;16.64;100.00
39789;BME280;25478;42.626;23.320;2022-08-14T05:27:46;92575.44;;;16.70;100.00
39789;BME280;25478;42.626;23.320;2022-08-14T05:30:11;92585.44;;;16.66;100.00
39789;BME280;25478;42.626;23.320;2022-08-14T05:32:45;92569.56;;;16.62;100.00
39789;BME280;25478;42.626;23.320;2022-08-14T05:35:17;92578.13;;;16.70;100.00
39789;BME280;25478;42.626;23.320;2022-08-14T05:37:50;92569.06;;;16.67;100.00
39789;BME280;25478;42.626;23.320;2022-08-14T05:40:15;92578.22;;;16.79;100.00
39789;BME280;25478;42.626;23.320;2022-08-14T05:42:48;92584.50;;;16.85;100.00
39789;BME280;25478;42.626;23.320;2022-08-14T05:45:20;92585.88;;;16.89;100.00
39789;BME280;25478;42.626;23.320;2022-08-14T05:47:51;92573.13;;;16.84;100.00
39789;BME280;25478;42.626;23.320;2022-08-14T05:50:17;92581.53;;;16.96;99.89
39789;BME280;25478;42.626;23.320;2022-08-14T05:52:51;92568.44;;;16.88;99.46
39789;BME280;25478;42.626;23.320;2022-08-14T05:55:23;92581.22;;;16.94;99.81
39789;BME280;25478;42.626;23.320;2022-08-14T05:57:58;92573.03;;;17.01;99.70
39789;BME280;25478;42.626;23.320;2022-08-14T06:00:36;92578.22;;;17.04;99.39
39789;BME280;25478;42.626;23.320;2022-08-14T06:03:11;92585.47;;;17.04;99.31
39789;BME280;25478;42.626;23.320;2022-08-14T06:05:47;92567.06;;;16.97;99.41
39789;BME280;25478;42.626;23.320;2022-08-14T06:08:24;92585.16;;;17.02;99.49
39789;BME280;25478;42.626;23.320;2022-08-14T06:10:58;92592.25;;;17.05;99.47
39789;BME280;25478;42.626;23.320;2022-08-14T06:13:42;92597.16;;;17.06;99.60
39789;BME280;25478;42.626;23.320;2022-08-14T06:16:15;92595.25;;;17.07;100.00
39789;BME280;25478;42.626;23.320;2022-08-14T06:18:54;92591.97;;;17.15;100.00
39789;BME280;25478;42.626;23.320;2022-08-14T06:21:26;92587.69;;;17.18;100.00
39789;BME280;25478;42.626;23.320;2022-08-14T06:23:59;92588.66;;;17.24;99.71
39789;BME280;25478;42.626;23.320;2022-08-14T06:26:30;92592.25;;;17.30;99.37
39789;BME280;25478;42.626;23.320;2022-08-14T06:29:03;92576.63;;;17.20;99.06
39789;BME280;25478;42.626;23.320;2022-08-14T06:31:35;92595.88;;;17.36;98.79
39789;BME280;25478;42.626;23.320;2022-08-14T06:34:07;92596.91;;;17.39;98.67
39789;BME280;25478;42.626;23.320;2022-08-14T06:36:39;92582.47;;;17.27;98.84
39789;BME280;25478;42.626;23.320;2022-08-14T06:39:04;92601.84;;;17.40;98.90
39789;BME280;25478;42.626;23.320;2022-08-14T06:41:38;92598.75;;;17.42;99.02
39789;BME280;25478;42.626;23.320;2022-08-14T06:44:04;92604.50;;;17.40;99.04
39789;BME280;25478;42.626;23.320;2022-08-14T06:46:36;92586.19;;;17.30;99.15
39789;BME280;25478;42.626;23.320;2022-08-14T06:49:01;92589.72;;;17.27;99.24
39789;BME280;25478;42.626;23.320;2022-08-14T06:51:34;92600.03;;;17.37;99.60
39789;BME280;25478;42.626;23.320;2022-08-14T06:54:06;92609.19;;;17.36;99.73
39789;BME280;25478;42.626;23.320;2022-08-14T06:56:38;92591.50;;;17.30;99.79
39789;BME280;25478;42.626;23.320;2022-08-14T06:59:14;92601.19;;;17.36;100.00
39789;BME280;25478;42.626;23.320;2022-08-14T07:01:46;92605.78;;;17.36;99.94
39789;BME280;25478;42.626;23.320;2022-08-14T07:04:36;92614.63;;;17.33;99.82
39789;BME280;25478;42.626;23.320;2022-08-14T07:07:37;92612.69;;;17.33;99.90
39789;BME280;25478;42.626;23.320;2022-08-14T07:10:10;92610.78;;;17.34;100.00
39789;BME280;25478;42.626;23.320;2022-08-14T07:12:35;92607.25;;;17.37;100.00
39789;BME280;25478;42.626;23.320;2022-08-14T07:15:08;92601.31;;;17.33;100.00
39789;BME280;25478;42.626;23.320;2022-08-14T07:17:49;92593.09;;;17.40;100.00
39789;BME280;25478;42.626;23.320;2022-08-14T07:20:21;92611.06;;;17.49;100.00
39789;BME280;25478;42.626;23.320;2022-08-14T07:23:02;92608.75;;;17.51;100.00
39789;BME280;25478;42.626;23.320;2022-08-14T07:25:36;92611.72;;;17.53;100.00
39789;BME280;25478;42.626;23.320;2022-08-14T07:28:09;92616.38;;;17.49;100.00
39789;BME280;25478;42.626;23.320;2022-08-14T07:30:42;92598.19;;;17.47;100.00
39789;BME280;25478;42.626;23.320;2022-08-14T07:33:15;92603.06;;;17.61;99.57
39789;BME280;25478;42.626;23.320;2022-08-14T07:35:47;92609.00;;;17.65;99.34
39789;BME280;25478;42.626;23.320;2022-08-14T07:38:21;92614.56;;;17.71;99.13
39789;BME280;25478;42.626;23.320;2022-08-14T07:40:53;92610.19;;;17.64;99.38
39789;BME280;25478;42.626;23.320;2022-08-14T07:43:26;92614.56;;;17.71;98.77
39789;BME280;25478;42.626;23.320;2022-08-14T07:45:59;92608.50;;;17.83;98.40
39789;BME280;25478;42.626;23.320;2022-08-14T07:48:31;92613.91;;;17.92;97.52
39789;BME280;25478;42.626;23.320;2022-08-14T07:51:03;92615.56;;;17.99;96.85
39789;BME280;25478;42.626;23.320;2022-08-14T07:53:35;92612.03;;;18.02;96.55
39789;BME280;25478;42.626;23.320;2022-08-14T07:56:08;92615.16;;;18.00;96.50
39789;BME280;25478;42.626;23.320;2022-08-14T07:58:40;92620.81;;;17.90;97.07
39789;BME280;25478;42.626;23.320;2022-08-14T08:01:13;92617.00;;;17.91;96.34
39789;BME280;25478;42.626;23.320;2022-08-14T08:03:46;92613.69;;;17.87;95.82
39789;BME280;25478;42.626;23.320;2022-08-14T08:06:19;92620.09;;;17.77;96.27
39789;BME280;25478;42.626;23.320;2022-08-14T08:08:54;92620.41;;;17.79;95.87
39789;BME280;25478;42.626;23.320;2022-08-14T08:11:33;92618.28;;;17.73;96.00
39789;BME280;25478;42.626;23.320;2022-08-14T08:14:05;92613.50;;;17.68;96.54
39789;BME280;25478;42.626;23.320;2022-08-14T08:16:37;92620.31;;;17.69;96.82
39789;BME280;25478;42.626;23.320;2022-08-14T08:19:17;92615.31;;;17.71;96.78
39789;BME280;25478;42.626;23.320;2022-08-14T08:21:49;92614.13;;;17.72;96.99
39789;BME280;25478;42.626;23.320;2022-08-14T08:24:23;92608.81;;;17.72;97.30
39789;BME280;25478;42.626;23.320;2022-08-14T08:26:55;92613.72;;;17.74;97.57
39789;BME280;25478;42.626;23.320;2022-08-14T08:29:27;92589.63;;;17.65;97.57
39789;BME280;25478;42.626;23.320;2022-08-14T08:31:58;92607.31;;;17.71;97.28
39789;BME280;25478;42.626;23.320;2022-08-14T08:34:31;92607.88;;;17.66;96.79
39789;BME280;25478;42.626;23.320;2022-08-14T08:37:13;92602.47;;;17.57;96.41
39789;BME280;25478;42.626;23.320;2022-08-14T08:39:47;92594.59;;;17.41;96.76
39789;BME280;25478;42.626;23.320;2022-08-14T08:42:23;92607.25;;;17.50;97.12
39789;BME280;25478;42.626;23.320;2022-08-14T08:44:56;92610.84;;;17.56;97.64
39789;BME280;25478;42.626;23.320;2022-08-14T08:47:38;92609.44;;;17.64;97.66
39789;BME280;25478;42.626;23.320;2022-08-14T08:53:08;92597.63;;;17.65;95.24
39789;BME280;25478;42.626;23.320;2022-08-14T08:55:42;92599.66;;;17.73;95.16
39789;BME280;25478;42.626;23.320;2022-08-14T08:58:15;92603.09;;;17.74;95.48
39789;BME280;25478;42.626;23.320;2022-08-14T09:00:50;92595.47;;;17.85;94.69
39789;BME280;25478;42.626;23.320;2022-08-14T09:03:25;92601.63;;;17.95;93.86
39789;BME280;25478;42.626;23.320;2022-08-14T09:06:00;92596.06;;;18.02;93.37
39789;BME280;25478;42.626;23.320;2022-08-14T09:08:34;92590.06;;;18.11;92.27
39789;BME280;25478;42.626;23.320;2022-08-14T09:11:07;92588.06;;;18.24;91.04
39789;BME280;25478;42.626;23.320;2022-08-14T09:13:43;92587.88;;;18.40;90.41
39789;BME280;25478;42.626;23.320;2022-08-14T09:16:08;92589.91;;;18.58;90.01
39789;BME280;25478;42.626;23.320;2022-08-14T09:18:41;92572.59;;;18.75;89.47
39789;BME280;25478;42.626;23.320;2022-08-14T09:21:20;92577.84;;;18.97;88.61
39789;BME280;25478;42.626;23.320;2022-08-14T09:23:53;92579.13;;;19.24;87.89
39789;BME280;25478;42.626;23.320;2022-08-14T09:26:26;92577.88;;;19.56;86.89
39789;BME280;25478;42.626;23.320;2022-08-14T09:28:52;92580.19;;;19.85;85.13
39789;BME280;25478;42.626;23.320;2022-08-14T09:31:24;92573.50;;;20.17;83.11
39789;BME280;25478;42.626;23.320;2022-08-14T09:34:17;92579.28;;;20.24;81.82
39789;BME280;25478;42.626;23.320;2022-08-14T09:37:20;92574.38;;;20.41;81.96
39789;BME280;25478;42.626;23.320;2022-08-14T09:45:45;92563.50;;;20.72;79.16
39789;BME280;25478;42.626;23.320;2022-08-14T09:48:21;92574.56;;;20.98;77.70
39789;BME280;25478;42.626;23.320;2022-08-14T09:50:55;92579.00;;;21.01;77.34
39789;BME280;25478;42.626;23.320;2022-08-14T09:53:44;92575.16;;;21.02;77.35
39789;BME280;25478;42.626;23.320;2022-08-14T09:56:18;92568.50;;;20.89;77.29
39789;BME280;25478;42.626;23.320;2022-08-14T09:58:51;92569.31;;;20.71;78.02
39789;BME280;25478;42.626;23.320;2022-08-14T10:01:22;92574.81;;;20.58;78.64
39789;BME280;25478;42.626;23.320;2022-08-14T10:03:56;92579.16;;;20.46;78.64
39789;BME280;25478;42.626;23.320;2022-08-14T10:06:41;92584.34;;;20.32;78.82
39789;BME280;25478;42.626;23.320;2022-08-14T10:09:17;92578.09;;;20.16;79.49
39789;BME280;25478;42.626;23.320;2022-08-14T10:11:57;92579.13;;;20.01;80.53
39789;BME280;25478;42.626;23.320;2022-08-14T10:14:32;92576.34;;;19.95;80.79
39789;BME280;25478;42.626;23.320;2022-08-14T10:17:21;92580.03;;;19.88;80.85
39789;BME280;25478;42.626;23.320;2022-08-14T10:19:57;92575.72;;;19.82;80.50
39789;BME280;25478;42.626;23.320;2022-08-14T10:22:36;92569.94;;;19.83;80.08
39789;BME280;25478;42.626;23.320;2022-08-14T10:25:11;92554.78;;;19.62;80.34
39789;BME280;25478;42.626;23.320;2022-08-14T10:27:56;92563.66;;;19.59;81.01
39789;BME280;25478;42.626;23.320;2022-08-14T10:30:32;92565.25;;;19.47;80.95
39789;BME280;25478;42.626;23.320;2022-08-14T10:33:07;92573.53;;;19.40;82.14
39789;BME280;25478;42.626;23.320;2022-08-14T10:35:42;92565.94;;;19.20;82.73
39789;BME280;25478;42.626;23.320;2022-08-14T10:38:25;92567.13;;;19.19;83.11
39789;BME280;25478;42.626;23.320;2022-08-14T10:41:17;92564.59;;;19.16;83.81
39789;BME280;25478;42.626;23.320;2022-08-14T10:44:14;92570.66;;;19.16;84.43
39789;BME280;25478;42.626;23.320;2022-08-14T10:49:25;92550.97;;;19.23;85.35
39789;BME280;25478;42.626;23.320;2022-08-14T10:52:06;92550.09;;;19.26;85.47
39789;BME280;25478;42.626;23.320;2022-08-14T10:54:41;92539.56;;;19.22;85.44
39789;BME280;25478;42.626;23.320;2022-08-14T10:57:20;92543.72;;;19.32;85.15
39789;BME280;25478;42.626;23.320;2022-08-14T10:59:53;92536.16;;;19.31;83.89
39789;BME280;25478;42.626;23.320;2022-08-14T11:02:35;92519.97;;;19.25;83.35
39789;BME280;25478;42.626;23.320;2022-08-14T11:05:11;92533.06;;;19.32;83.50
39789;BME280;25478;42.626;23.320;2022-08-14T11:13:21;92522.75;;;19.80;82.08
39789;BME280;25478;42.626;23.320;2022-08-14T11:15:59;92526.91;;;19.81;81.02
39789;BME280;25478;42.626;23.320;2022-08-14T11:18:43;92521.13;;;19.83;80.48
39789;BME280;25478;42.626;23.320;2022-08-14T11:21:19;92524.09;;;19.85;79.53
39789;BME280;25478;42.626;23.320;2022-08-14T11:23:58;92523.94;;;19.88;79.72
39789;BME280;25478;42.626;23.320;2022-08-14T11:26:32;92518.75;;;19.94;78.92
39789;BME280;25478;42.626;23.320;2022-08-14T11:29:08;92522.16;;;19.94;78.30
39789;BME280;25478;42.626;23.320;2022-08-14T11:31:41;92528.38;;;19.91;78.11
39789;BME280;25478;42.626;23.320;2022-08-14T11:34:13;92528.84;;;19.99;78.50
39789;BME280;25478;42.626;23.320;2022-08-14T11:36:45;92539.81;;;20.10;78.08
39789;BME280;25478;42.626;23.320;2022-08-14T11:39:22;92540.41;;;20.23;78.19
39789;BME280;25478;42.626;23.320;2022-08-14T11:41:53;92533.56;;;20.32;78.39
39789;BME280;25478;42.626;23.320;2022-08-14T11:44:27;92540.69;;;20.44;77.88
39789;BME280;25478;42.626;23.320;2022-08-14T11:47:00;92521.25;;;20.43;77.13
39789;BME280;25478;42.626;23.320;2022-08-14T11:49:34;92532.78;;;20.59;76.66
39789;BME280;25478;42.626;23.320;2022-08-14T11:52:05;92530.09;;;20.59;76.20
39789;BME280;25478;42.626;23.320;2022-08-14T11:54:39;92529.97;;;20.62;76.62
39789;BME280;25478;42.626;23.320;2022-08-14T11:57:16;92531.88;;;20.62;76.32
39789;BME280;25478;42.626;23.320;2022-08-14T11:59:47;92510.94;;;20.51;76.84
39789;BME280;25478;42.626;23.320;2022-08-14T12:02:19;92524.19;;;20.55;76.61
39789;BME280;25478;42.626;23.320;2022-08-14T12:04:52;92525.22;;;20.57;75.60
39789;BME280;25478;42.626;23.320;2022-08-14T12:07:25;92527.44;;;20.59;75.13
39789;BME280;25478;42.626;23.320;2022-08-14T12:09:56;92524.75;;;20.59;75.68
39789;BME280;25478;42.626;23.320;2022-08-14T12:12:29;92523.88;;;20.62;75.56
39789;BME280;25478;42.626;23.320;2022-08-14T12:15:03;92520.75;;;20.63;75.79
39789;BME280;25478;42.626;23.320;2022-08-14T12:17:44;92513.63;;;20.60;75.70
39789;BME280;25478;42.626;23.320;2022-08-14T12:20:34;92511.09;;;20.57;76.24
39789;BME280;25478;42.626;23.320;2022-08-14T12:23:20;92508.28;;;20.51;76.61
39789;BME280;25478;42.626;23.320;2022-08-14T12:26:08;92497.19;;;20.43;77.92
39789;BME280;25478;42.626;23.320;2022-08-14T12:28:41;92505.59;;;20.42;79.06
39789;BME280;25478;42.626;23.320;2022-08-14T12:31:19;92508.00;;;20.40;78.34
39789;BME280;25478;42.626;23.320;2022-08-14T12:33:57;92509.66;;;20.37;77.96
39789;BME280;25478;42.626;23.320;2022-08-14T12:36:31;92497.63;;;20.33;78.61
39789;BME280;25478;42.626;23.320;2022-08-14T12:39:17;92510.84;;;20.36;79.16
39789;BME280;25478;42.626;23.320;2022-08-14T12:41:53;92514.69;;;20.35;79.09
39789;BME280;25478;42.626;23.320;2022-08-14T12:44:29;92492.00;;;20.21;79.26
39789;BME280;25478;42.626;23.320;2022-08-14T12:47:10;92501.03;;;20.24;79.58
39789;BME280;25478;42.626;23.320;2022-08-14T12:49:50;92500.00;;;20.31;79.56
39789;BME280;25478;42.626;23.320;2022-08-14T12:55:06;92504.78;;;20.27;79.69
39789;BME280;25478;42.626;23.320;2022-08-14T12:57:41;92482.06;;;20.13;80.05
39789;BME280;25478;42.626;23.320;2022-08-14T13:00:20;92501.06;;;20.15;80.13
39789;BME280;25478;42.626;23.320;2022-08-14T13:02:53;92473.03;;;20.01;81.04
39789;BME280;25478;42.626;23.320;2022-08-14T13:05:28;92494.53;;;20.07;81.68
39789;BME280;25478;42.626;23.320;2022-08-14T13:08:04;92483.72;;;20.01;82.02
39789;BME280;25478;42.626;23.320;2022-08-14T13:10:36;92494.09;;;19.99;82.22
39789;BME280;25478;42.626;23.320;2022-08-14T13:13:10;92490.69;;;19.99;82.75
39789;BME280;25478;42.626;23.320;2022-08-14T13:15:46;92481.66;;;19.96;83.43
39789;BME280;25478;42.626;23.320;2022-08-14T13:18:20;92475.28;;;19.93;84.50
39789;BME280;25478;42.626;23.320;2022-08-14T13:20:55;92475.41;;;19.90;84.99
39789;BME280;25478;42.626;23.320;2022-08-14T13:23:34;92458.81;;;19.77;84.47
39789;BME280;25478;42.626;23.320;2022-08-14T13:26:07;92457.94;;;19.71;83.41
39789;BME280;25478;42.626;23.320;2022-08-14T13:28:40;92455.28;;;19.61;83.46
39789;BME280;25478;42.626;23.320;2022-08-14T13:31:15;92458.94;;;19.55;83.37
39789;BME280;25478;42.626;23.320;2022-08-14T13:33:49;92426.31;;;19.32;83.22
39789;BME280;25478;42.626;23.320;2022-08-14T13:36:25;92451.06;;;19.42;83.05
39789;BME280;25478;42.626;23.320;2022-08-14T13:38:58;92446.34;;;19.37;83.38
39789;BME280;25478;42.626;23.320;2022-08-14T13:41:25;92434.19;;;19.27;83.41